sensor_id;sensor_type;location;lat;lon;timestamp;pressure;altitude;pressure_sealevel;temperature;humidity
42007;BME280;27696;42.704;23.304;2022-07-29T00:00:11;95385.69;;;33.25;31.71
42007;BME280;27696;42.704;23.304;2022-07-29T00:02:37;95399.41;;;33.39;31.70
42007;BME280;27696;42.704;23.304;2022-07-29T00:05:03;95399.09;;;34.01;30.60
42007;BME280;27696;42.704;23.304;2022-07-29T00:07:29;95409.56;;;34.18;30.27
42007;BME280;27696;42.704;23.304;2022-07-29T00:09:55;95409.44;;;34.08;30.40
42007;BME280;27696;42.704;23.304;2022-07-29T00:12:22;95412.75;;;33.81;30.91
42007;BME280;27696;42.704;23.304;2022-07-29T00:14:48;95402.41;;;33.25;31.47
42007;BME280;27696;42.704;23.304;2022-07-29T00:17:13;95398.94;;;33.01;32.12
42007;BME280;27696;42.704;23.304;2022-07-29T00:19:39;95408.66;;;33.49;30.75
42007;BME280;27696;42.704;23.304;2022-07-29T00:22:04;95406.38;;;33.55;30.68
42007;BME280;27696;42.704;23.304;2022-07-29T00:24:30;95411.22;;;33.55;30.77
42007;BME280;27696;42.704;23.304;2022-07-29T00:26:55;95407.09;;;32.99;31.52
42007;BME280;27696;42.704;23.304;2022-07-29T00:29:21;95406.16;;;33.12;31.85
42007;BME280;27696;42.704;23.304;2022-07-29T00:31:46;95404.38;;;32.84;32.40
42007;BME280;27696;42.704;23.304;2022-07-29T00:34:12;95408.94;;;33.20;31.90
42007;BME280;27696;42.704;23.304;2022-07-29T00:36:56;95409.53;;;34.51;29.31
42007;BME280;27696;42.704;23.304;2022-07-29T00:39:22;95421.63;;;34.20;30.00
42007;BME280;27696;42.704;23.304;2022-07-29T00:41:47;95427.91;;;32.98;31.49
42007;BME280;27696;42.704;23.304;2022-07-29T00:44:14;95423.47;;;32.49;32.49
42007;BME280;27696;42.704;23.304;2022-07-29T00:46:39;95437.75;;;31.25;34.25
42007;BME280;27696;42.704;23.304;2022-07-29T00:49:04;95426.00;;;32.16;32.44
42007;BME280;27696;42.704;23.304;2022-07-29T00:51:32;95423.34;;;30.69;34.64
42007;BME280;27696;42.704;23.304;2022-07-29T00:53:58;95428.44;;;32.11;32.82
42007;BME280;27696;42.704;23.304;2022-07-29T00:56:24;95428.06;;;31.47;33.48
42007;BME280;27696;42.704;23.304;2022-07-29T00:58:50;95425.34;;;31.26;34.00
42007;BME280;27696;42.704;23.304;2022-07-29T01:01:16;95423.34;;;30.69;35.29
42007;BME280;27696;42.704;23.304;2022-07-29T01:03:41;95412.56;;;31.68;33.25
42007;BME280;27696;42.704;23.304;2022-07-29T01:06:07;95418.28;;;30.88;34.60
42007;BME280;27696;42.704;23.304;2022-07-29T01:08:33;95424.75;;;31.12;34.58
42007;BME280;27696;42.704;23.304;2022-07-29T01:10:59;95406.56;;;32.00;32.87
42007;BME280;27696;42.704;23.304;2022-07-29T01:13:26;95408.03;;;32.17;32.47
42007;BME280;27696;42.704;23.304;2022-07-29T01:15:56;95399.56;;;32.30;32.22
42007;BME280;27696;42.704;23.304;2022-07-29T01:18:30;95392.28;;;32.89;31.35
42007;BME280;27696;42.704;23.304;2022-07-29T01:21:23;95404.19;;;32.43;32.44
42007;BME280;27696;42.704;23.304;2022-07-29T01:24:04;95400.31;;;32.38;32.49
42007;BME280;27696;42.704;23.304;2022-07-29T01:26:49;95382.88;;;32.46;32.38
42007;BME280;27696;42.704;23.304;2022-07-29T01:29:27;95385.47;;;32.28;32.92
42007;BME280;27696;42.704;23.304;2022-07-29T01:32:04;95386.22;;;32.52;32.50
42007;BME280;27696;42.704;23.304;2022-07-29T01:35:06;95378.97;;;32.72;32.26
42007;BME280;27696;42.704;23.304;2022-07-29T01:37:56;95374.31;;;32.75;32.14
42007;BME280;27696;42.704;23.304;2022-07-29T01:46:15;95386.53;;;32.95;32.01
42007;BME280;27696;42.704;23.304;2022-07-29T01:48:47;95379.75;;;33.21;31.11
42007;BME280;27696;42.704;23.304;2022-07-29T01:51:18;95385.03;;;33.58;30.97
42007;BME280;27696;42.704;23.304;2022-07-29T01:56:32;95371.00;;;32.84;31.86
42007;BME280;27696;42.704;23.304;2022-07-29T01:58:59;95370.00;;;33.05;31.75
42007;BME280;27696;42.704;23.304;2022-07-29T02:01:27;95367.03;;;33.02;32.01
42007;BME280;27696;42.704;23.304;2022-07-29T02:03:55;95369.38;;;33.29;31.12
42007;BME280;27696;42.704;23.304;2022-07-29T02:06:23;95371.53;;;32.75;32.11
42007;BME280;27696;42.704;23.304;2022-07-29T02:08:50;95374.88;;;32.81;32.40
42007;BME280;27696;42.704;23.304;2022-07-29T02:11:16;95361.00;;;32.57;32.50
42007;BME280;27696;42.704;23.304;2022-07-29T02:13:43;95361.81;;;33.55;30.65
42007;BME280;27696;42.704;23.304;2022-07-29T02:16:10;95367.97;;;33.54;30.73
42007;BME280;27696;42.704;23.304;2022-07-29T02:18:39;95365.75;;;33.03;31.27
42007;BME280;27696;42.704;23.304;2022-07-29T02:21:06;95356.63;;;33.92;30.26
42007;BME280;27696;42.704;23.304;2022-07-29T02:23:33;95364.69;;;32.76;31.80
42007;BME280;27696;42.704;23.304;2022-07-29T02:26:01;95358.38;;;32.67;32.02
42007;BME280;27696;42.704;23.304;2022-07-29T02:28:28;95343.22;;;32.53;32.23
42007;BME280;27696;42.704;23.304;2022-07-29T02:30:58;95363.53;;;32.94;31.82
42007;BME280;27696;42.704;23.304;2022-07-29T02:33:25;95353.00;;;32.93;31.57
42007;BME280;27696;42.704;23.304;2022-07-29T02:35:52;95342.78;;;32.87;32.00
42007;BME280;27696;42.704;23.304;2022-07-29T02:38:18;95342.09;;;32.56;32.44
42007;BME280;27696;42.704;23.304;2022-07-29T02:41:23;95340.88;;;33.06;31.78
42007;BME280;27696;42.704;23.304;2022-07-29T02:43:56;95333.78;;;33.20;31.75
42007;BME280;27696;42.704;23.304;2022-07-29T02:46:33;95339.84;;;34.25;30.24
42007;BME280;27696;42.704;23.304;2022-07-29T02:49:15;95352.97;;;33.49;31.00
42007;BME280;27696;42.704;23.304;2022-07-29T02:51:45;95343.00;;;33.30;31.43
42007;BME280;27696;42.704;23.304;2022-07-29T02:54:23;95343.03;;;32.66;32.42
42007;BME280;27696;42.704;23.304;2022-07-29T02:56:51;95339.16;;;32.38;33.42
42007;BME280;27696;42.704;23.304;2022-07-29T02:59:23;95336.38;;;32.54;33.37
42007;BME280;27696;42.704;23.304;2022-07-29T03:01:52;95346.94;;;32.24;33.73
42007;BME280;27696;42.704;23.304;2022-07-29T03:04:19;95355.44;;;32.19;33.78
42007;BME280;27696;42.704;23.304;2022-07-29T03:06:46;95349.50;;;31.84;34.49
42007;BME280;27696;42.704;23.304;2022-07-29T03:09:13;95345.41;;;31.69;34.55
42007;BME280;27696;42.704;23.304;2022-07-29T03:11:40;95340.81;;;32.41;34.04
42007;BME280;27696;42.704;23.304;2022-07-29T03:14:07;95341.34;;;32.48;33.79
42007;BME280;27696;42.704;23.304;2022-07-29T03:16:33;95345.47;;;32.31;33.79
42007;BME280;27696;42.704;23.304;2022-07-29T03:19:02;95340.78;;;31.87;34.12
42007;BME280;27696;42.704;23.304;2022-07-29T03:21:28;95353.94;;;31.87;34.20
42007;BME280;27696;42.704;23.304;2022-07-29T03:23:53;95349.50;;;31.84;34.19
42007;BME280;27696;42.704;23.304;2022-07-29T03:26:19;95354.13;;;31.89;34.13
42007;BME280;27696;42.704;23.304;2022-07-29T03:28:44;95344.34;;;32.19;33.56
42007;BME280;27696;42.704;23.304;2022-07-29T03:31:10;95345.44;;;32.23;33.68
42007;BME280;27696;42.704;23.304;2022-07-29T03:33:35;95345.81;;;32.51;33.08
42007;BME280;27696;42.704;23.304;2022-07-29T03:36:00;95344.13;;;32.63;32.50
42007;BME280;27696;42.704;23.304;2022-07-29T03:38:29;95350.91;;;33.09;32.31
42007;BME280;27696;42.704;23.304;2022-07-29T03:40:58;95349.59;;;33.51;31.55
42007;BME280;27696;42.704;23.304;2022-07-29T03:43:27;95355.13;;;33.58;31.03
42007;BME280;27696;42.704;23.304;2022-07-29T03:45:56;95357.88;;;33.66;31.44
42007;BME280;27696;42.704;23.304;2022-07-29T03:48:23;95357.16;;;33.17;31.95
42007;BME280;27696;42.704;23.304;2022-07-29T03:50:50;95365.84;;;32.49;33.48
42007;BME280;27696;42.704;23.304;2022-07-29T03:53:16;95369.06;;;33.58;31.34
42007;BME280;27696;42.704;23.304;2022-07-29T03:55:48;95356.97;;;34.22;30.15
42007;BME280;27696;42.704;23.304;2022-07-29T03:58:16;95371.25;;;33.60;30.76
42007;BME280;27696;42.704;23.304;2022-07-29T04:00:43;95365.75;;;33.85;30.55
42007;BME280;27696;42.704;23.304;2022-07-29T04:03:10;95368.72;;;33.87;30.72
42007;BME280;27696;42.704;23.304;2022-07-29T04:05:35;95371.50;;;33.87;30.35
42007;BME280;27696;42.704;23.304;2022-07-29T04:08:01;95375.91;;;33.65;30.99
42007;BME280;27696;42.704;23.304;2022-07-29T04:10:26;95369.50;;;33.47;31.11
42007;BME280;27696;42.704;23.304;2022-07-29T04:12:52;95369.06;;;33.10;31.54
42007;BME280;27696;42.704;23.304;2022-07-29T04:15:18;95372.75;;;33.12;31.89
42007;BME280;27696;42.704;23.304;2022-07-29T04:17:43;95367.88;;;33.28;31.34
42007;BME280;27696;42.704;23.304;2022-07-29T04:20:10;95350.84;;;33.16;31.63
42007;BME280;27696;42.704;23.304;2022-07-29T04:22:38;95352.63;;;33.70;31.06
42007;BME280;27696;42.704;23.304;2022-07-29T04:25:04;95347.03;;;33.45;31.61
42007;BME280;27696;42.704;23.304;2022-07-29T04:27:30;95351.28;;;33.79;30.99
42007;BME280;27696;42.704;23.304;2022-07-29T04:29:55;95360.97;;;33.78;30.93
42007;BME280;27696;42.704;23.304;2022-07-29T04:32:21;95363.78;;;34.29;29.99
42007;BME280;27696;42.704;23.304;2022-07-29T04:34:47;95372.72;;;34.87;29.07
42007;BME280;27696;42.704;23.304;2022-07-29T04:37:13;95375.09;;;34.31;30.15
42007;BME280;27696;42.704;23.304;2022-07-29T04:39:38;95381.53;;;34.16;30.28
42007;BME280;27696;42.704;23.304;2022-07-29T04:42:04;95382.84;;;33.82;30.69
42007;BME280;27696;42.704;23.304;2022-07-29T04:44:29;95379.13;;;33.87;30.45
42007;BME280;27696;42.704;23.304;2022-07-29T04:46:55;95374.38;;;34.05;30.09
42007;BME280;27696;42.704;23.304;2022-07-29T04:49:21;95380.28;;;34.09;30.04
42007;BME280;27696;42.704;23.304;2022-07-29T04:51:46;95377.66;;;33.78;30.83
42007;BME280;27696;42.704;23.304;2022-07-29T04:54:11;95387.28;;;33.92;30.57
42007;BME280;27696;42.704;23.304;2022-07-29T04:56:37;95387.88;;;34.59;29.19
42007;BME280;27696;42.704;23.304;2022-07-29T04:59:02;95377.38;;;34.50;29.33
42007;BME280;27696;42.704;23.304;2022-07-29T05:01:28;95377.69;;;35.14;28.73
42007;BME280;27696;42.704;23.304;2022-07-29T05:03:54;95382.53;;;34.96;28.46
42007;BME280;27696;42.704;23.304;2022-07-29T05:06:19;95372.44;;;34.15;29.95
42007;BME280;27696;42.704;23.304;2022-07-29T05:08:45;95384.31;;;34.84;28.82
42007;BME280;27696;42.704;23.304;2022-07-29T05:11:10;95389.56;;;34.37;29.52
42007;BME280;27696;42.704;23.304;2022-07-29T05:13:36;95380.75;;;34.66;29.75
42007;BME280;27696;42.704;23.304;2022-07-29T05:16:01;95382.59;;;35.06;29.32
42007;BME280;27696;42.704;23.304;2022-07-29T05:18:27;95389.25;;;35.28;28.38
42007;BME280;27696;42.704;23.304;2022-07-29T05:20:53;95390.63;;;35.55;27.86
42007;BME280;27696;42.704;23.304;2022-07-29T05:23:19;95387.16;;;34.59;29.86
42007;BME280;27696;42.704;23.304;2022-07-29T05:25:44;95389.38;;;34.78;29.32
42007;BME280;27696;42.704;23.304;2022-07-29T05:28:10;95387.13;;;35.19;28.30
42007;BME280;27696;42.704;23.304;2022-07-29T05:30:36;95384.81;;;35.70;27.60
42007;BME280;27696;42.704;23.304;2022-07-29T05:33:01;95384.91;;;35.00;28.30
42007;BME280;27696;42.704;23.304;2022-07-29T05:35:27;95393.25;;;34.82;28.87
42007;BME280;27696;42.704;23.304;2022-07-29T05:37:52;95386.50;;;34.85;28.59
42007;BME280;27696;42.704;23.304;2022-07-29T05:40:18;95387.28;;;34.86;28.77
42007;BME280;27696;42.704;23.304;2022-07-29T05:42:43;95384.44;;;34.00;29.40
42007;BME280;27696;42.704;23.304;2022-07-29T05:45:09;95392.50;;;34.64;28.99
42007;BME280;27696;42.704;23.304;2022-07-29T05:47:34;95398.66;;;34.12;29.34
42007;BME280;27696;42.704;23.304;2022-07-29T05:50:00;95393.88;;;34.05;29.29
42007;BME280;27696;42.704;23.304;2022-07-29T05:52:26;95391.81;;;34.99;28.46
42007;BME280;27696;42.704;23.304;2022-07-29T05:54:51;95399.03;;;34.34;29.13
42007;BME280;27696;42.704;23.304;2022-07-29T05:57:22;95395.91;;;34.98;28.31
42007;BME280;27696;42.704;23.304;2022-07-29T05:59:49;95395.94;;;34.72;28.67
42007;BME280;27696;42.704;23.304;2022-07-29T06:02:15;95399.44;;;34.55;28.73
42007;BME280;27696;42.704;23.304;2022-07-29T06:04:40;95400.47;;;34.68;28.44
42007;BME280;27696;42.704;23.304;2022-07-29T06:07:06;95397.97;;;34.54;28.97
42007;BME280;27696;42.704;23.304;2022-07-29T06:09:32;95396.06;;;35.00;28.66
42007;BME280;27696;42.704;23.304;2022-07-29T06:11:58;95393.91;;;34.91;28.66
42007;BME280;27696;42.704;23.304;2022-07-29T06:14:24;95401.16;;;35.11;28.65
42007;BME280;27696;42.704;23.304;2022-07-29T06:16:50;95397.38;;;34.81;28.56
42007;BME280;27696;42.704;23.304;2022-07-29T06:19:15;95399.75;;;35.02;28.76
42007;BME280;27696;42.704;23.304;2022-07-29T06:21:45;95400.22;;;36.16;27.12
42007;BME280;27696;42.704;23.304;2022-07-29T06:24:12;95400.25;;;35.71;27.79
42007;BME280;27696;42.704;23.304;2022-07-29T06:26:39;95402.88;;;36.24;27.36
42007;BME280;27696;42.704;23.304;2022-07-29T06:29:06;95401.69;;;35.90;27.42
42007;BME280;27696;42.704;23.304;2022-07-29T06:31:32;95397.25;;;35.87;27.41
42007;BME280;27696;42.704;23.304;2022-07-29T06:33:57;95396.41;;;35.22;27.62
42007;BME280;27696;42.704;23.304;2022-07-29T06:36:23;95391.19;;;35.36;27.41
42007;BME280;27696;42.704;23.304;2022-07-29T06:38:48;95390.31;;;35.78;27.07
42007;BME280;27696;42.704;23.304;2022-07-29T06:41:13;95400.31;;;35.81;27.46
42007;BME280;27696;42.704;23.304;2022-07-29T06:43:42;95395.06;;;35.58;27.84
42007;BME280;27696;42.704;23.304;2022-07-29T06:46:10;95396.28;;;36.29;26.92
42007;BME280;27696;42.704;23.304;2022-07-29T06:48:37;95393.19;;;35.43;27.93
42007;BME280;27696;42.704;23.304;2022-07-29T06:51:03;95391.88;;;35.71;27.61
42007;BME280;27696;42.704;23.304;2022-07-29T06:53:29;95389.47;;;36.69;26.07
42007;BME280;27696;42.704;23.304;2022-07-29T06:55:55;95395.41;;;36.36;27.01
42007;BME280;27696;42.704;23.304;2022-07-29T06:58:21;95379.38;;;37.13;25.52
42007;BME280;27696;42.704;23.304;2022-07-29T07:00:47;95380.97;;;35.21;27.66
42007;BME280;27696;42.704;23.304;2022-07-29T07:03:13;95390.00;;;36.01;27.21
42007;BME280;27696;42.704;23.304;2022-07-29T07:05:39;95372.59;;;37.26;25.14
42007;BME280;27696;42.704;23.304;2022-07-29T07:08:05;95380.78;;;37.63;24.41
42007;BME280;27696;42.704;23.304;2022-07-29T07:10:30;95374.00;;;37.67;24.45
42007;BME280;27696;42.704;23.304;2022-07-29T07:12:56;95375.09;;;37.32;24.43
42007;BME280;27696;42.704;23.304;2022-07-29T07:15:21;95365.50;;;38.37;23.53
42007;BME280;27696;42.704;23.304;2022-07-29T07:17:48;95374.41;;;38.55;23.51
42007;BME280;27696;42.704;23.304;2022-07-29T07:20:14;95373.81;;;37.84;24.06
42007;BME280;27696;42.704;23.304;2022-07-29T07:22:40;95377.88;;;37.61;24.22
42007;BME280;27696;42.704;23.304;2022-07-29T07:25:06;95369.81;;;39.04;22.65
42007;BME280;27696;42.704;23.304;2022-07-29T07:27:31;95380.44;;;38.83;22.77
42007;BME280;27696;42.704;23.304;2022-07-29T07:29:57;95367.66;;;39.14;22.98
42007;BME280;27696;42.704;23.304;2022-07-29T07:32:22;95365.19;;;39.87;21.61
42007;BME280;27696;42.704;23.304;2022-07-29T07:34:48;95363.75;;;39.41;21.97
42007;BME280;27696;42.704;23.304;2022-07-29T07:37:13;95361.31;;;39.47;21.59
42007;BME280;27696;42.704;23.304;2022-07-29T07:39:40;95357.78;;;39.70;21.91
42007;BME280;27696;42.704;23.304;2022-07-29T07:42:05;95368.13;;;39.44;21.96
42007;BME280;27696;42.704;23.304;2022-07-29T07:44:32;95366.91;;;39.47;22.04
42007;BME280;27696;42.704;23.304;2022-07-29T07:46:57;95371.22;;;40.29;20.90
42007;BME280;27696;42.704;23.304;2022-07-29T07:49:23;95368.50;;;40.07;20.57
42007;BME280;27696;42.704;23.304;2022-07-29T07:51:49;95368.75;;;39.88;21.26
42007;BME280;27696;42.704;23.304;2022-07-29T07:54:15;95362.38;;;40.23;20.63
42007;BME280;27696;42.704;23.304;2022-07-29T07:56:40;95371.84;;;39.58;21.87
42007;BME280;27696;42.704;23.304;2022-07-29T07:59:05;95359.56;;;41.08;20.16
42007;BME280;27696;42.704;23.304;2022-07-29T08:01:31;95364.97;;;40.43;20.76
42007;BME280;27696;42.704;23.304;2022-07-29T08:03:56;95367.63;;;40.64;20.19
42007;BME280;27696;42.704;23.304;2022-07-29T08:06:22;95365.69;;;41.05;19.83
42007;BME280;27696;42.704;23.304;2022-07-29T08:08:50;95359.84;;;40.89;19.62
42007;BME280;27696;42.704;23.304;2022-07-29T08:11:15;95363.13;;;41.09;19.63
42007;BME280;27696;42.704;23.304;2022-07-29T08:13:42;95364.56;;;39.77;21.79
42007;BME280;27696;42.704;23.304;2022-07-29T08:16:08;95356.34;;;41.14;19.92
42007;BME280;27696;42.704;23.304;2022-07-29T08:18:38;95365.50;;;40.77;20.27
42007;BME280;27696;42.704;23.304;2022-07-29T08:21:04;95370.16;;;40.72;20.32
42007;BME280;27696;42.704;23.304;2022-07-29T08:23:30;95359.59;;;40.96;19.63
42007;BME280;27696;42.704;23.304;2022-07-29T08:26:10;95360.81;;;40.93;19.83
42007;BME280;27696;42.704;23.304;2022-07-29T08:28:40;95361.69;;;41.73;18.88
42007;BME280;27696;42.704;23.304;2022-07-29T08:31:07;95359.59;;;40.84;19.99
42007;BME280;27696;42.704;23.304;2022-07-29T08:33:33;95361.06;;;40.97;19.68
42007;BME280;27696;42.704;23.304;2022-07-29T08:35:58;95354.22;;;40.89;19.62
42007;BME280;27696;42.704;23.304;2022-07-29T08:38:24;95357.78;;;41.67;18.76
42007;BME280;27696;42.704;23.304;2022-07-29T08:40:51;95362.78;;;41.94;18.79
42007;BME280;27696;42.704;23.304;2022-07-29T08:43:18;95359.13;;;41.91;18.89
42007;BME280;27696;42.704;23.304;2022-07-29T08:45:48;95353.22;;;41.87;18.30
42007;BME280;27696;42.704;23.304;2022-07-29T08:48:17;95350.50;;;41.75;18.57
42007;BME280;27696;42.704;23.304;2022-07-29T08:50:44;95354.97;;;41.67;18.90
42007;BME280;27696;42.704;23.304;2022-07-29T08:53:16;95333.88;;;42.35;18.23
42007;BME280;27696;42.704;23.304;2022-07-29T08:55:43;95341.81;;;42.53;18.36
42007;BME280;27696;42.704;23.304;2022-07-29T08:58:10;95347.81;;;41.77;18.29
42007;BME280;27696;42.704;23.304;2022-07-29T09:00:37;95345.53;;;41.48;19.27
42007;BME280;27696;42.704;23.304;2022-07-29T09:03:06;95350.66;;;41.91;18.13
42007;BME280;27696;42.704;23.304;2022-07-29T09:05:33;95341.91;;;42.41;17.83
42007;BME280;27696;42.704;23.304;2022-07-29T09:07:59;95337.34;;;42.92;17.62
42007;BME280;27696;42.704;23.304;2022-07-29T09:10:25;95329.16;;;42.98;17.18
42007;BME280;27696;42.704;23.304;2022-07-29T09:12:51;95335.81;;;43.19;17.01
42007;BME280;27696;42.704;23.304;2022-07-29T09:15:17;95319.41;;;43.31;16.84
42007;BME280;27696;42.704;23.304;2022-07-29T09:17:45;95332.50;;;43.70;16.65
42007;BME280;27696;42.704;23.304;2022-07-29T09:20:14;95333.19;;;42.65;17.09
42007;BME280;27696;42.704;23.304;2022-07-29T09:22:40;95321.56;;;42.87;17.25
42007;BME280;27696;42.704;23.304;2022-07-29T09:25:06;95325.91;;;42.60;17.63
42007;BME280;27696;42.704;23.304;2022-07-29T09:27:31;95332.03;;;42.84;17.48
42007;BME280;27696;42.704;23.304;2022-07-29T09:32:25;95325.38;;;42.21;17.37
42007;BME280;27696;42.704;23.304;2022-07-29T09:35:21;95322.41;;;43.65;16.36
42007;BME280;27696;42.704;23.304;2022-07-29T09:37:48;95319.28;;;43.91;16.17
42007;BME280;27696;42.704;23.304;2022-07-29T09:40:19;95317.66;;;43.86;15.89
42007;BME280;27696;42.704;23.304;2022-07-29T09:42:46;95316.56;;;43.61;15.74
42007;BME280;27696;42.704;23.304;2022-07-29T09:45:13;95315.72;;;43.90;15.57
42007;BME280;27696;42.704;23.304;2022-07-29T09:47:50;95319.88;;;43.41;15.96
42007;BME280;27696;42.704;23.304;2022-07-29T09:50:16;95315.28;;;43.80;15.94
42007;BME280;27696;42.704;23.304;2022-07-29T09:52:49;95309.25;;;44.54;15.34
42007;BME280;27696;42.704;23.304;2022-07-29T09:55:15;95317.97;;;43.46;16.30
42007;BME280;27696;42.704;23.304;2022-07-29T09:57:41;95301.00;;;44.26;15.46
42007;BME280;27696;42.704;23.304;2022-07-29T10:00:12;95296.72;;;44.77;15.09
42007;BME280;27696;42.704;23.304;2022-07-29T10:02:39;95301.53;;;44.22;15.79
42007;BME280;27696;42.704;23.304;2022-07-29T10:05:19;95297.00;;;44.15;16.07
42007;BME280;27696;42.704;23.304;2022-07-29T10:07:47;95298.25;;;44.62;15.76
42007;BME280;27696;42.704;23.304;2022-07-29T10:10:25;95281.34;;;45.01;15.41
42007;BME280;27696;42.704;23.304;2022-07-29T10:13:00;95287.28;;;45.25;15.38
42007;BME280;27696;42.704;23.304;2022-07-29T10:15:29;95283.53;;;45.58;14.93
42007;BME280;27696;42.704;23.304;2022-07-29T10:17:56;95275.25;;;45.44;15.17
42007;BME280;27696;42.704;23.304;2022-07-29T10:20:22;95274.84;;;44.44;15.56
42007;BME280;27696;42.704;23.304;2022-07-29T10:22:49;95270.81;;;45.21;14.92
42007;BME280;27696;42.704;23.304;2022-07-29T10:25:16;95274.84;;;45.72;14.68
42007;BME280;27696;42.704;23.304;2022-07-29T10:27:42;95274.78;;;45.52;14.80
42007;BME280;27696;42.704;23.304;2022-07-29T10:30:09;95269.59;;;45.65;14.58
42007;BME280;27696;42.704;23.304;2022-07-29T10:32:37;95269.19;;;45.93;14.55
42007;BME280;27696;42.704;23.304;2022-07-29T10:43:27;95251.16;;;46.04;14.55
42007;BME280;27696;42.704;23.304;2022-07-29T10:45:59;95243.09;;;47.07;13.69
42007;BME280;27696;42.704;23.304;2022-07-29T10:48:25;95253.72;;;46.82;13.88
42007;BME280;27696;42.704;23.304;2022-07-29T10:50:59;95247.47;;;46.21;13.73
42007;BME280;27696;42.704;23.304;2022-07-29T10:53:51;95235.44;;;47.61;12.93
42007;BME280;27696;42.704;23.304;2022-07-29T10:56:29;95230.97;;;48.95;11.93
42007;BME280;27696;42.704;23.304;2022-07-29T11:01:43;95214.97;;;48.21;12.25
42007;BME280;27696;42.704;23.304;2022-07-29T11:04:08;95227.06;;;45.85;14.14
42007;BME280;27696;42.704;23.304;2022-07-29T11:09:28;95220.25;;;47.03;12.84
42007;BME280;27696;42.704;23.304;2022-07-29T11:11:58;95222.41;;;44.79;14.55
42007;BME280;27696;42.704;23.304;2022-07-29T11:17:17;95204.34;;;48.52;12.17
42007;BME280;27696;42.704;23.304;2022-07-29T11:19:43;95210.09;;;48.54;12.01
42007;BME280;27696;42.704;23.304;2022-07-29T11:22:10;95206.47;;;47.95;12.14
42007;BME280;27696;42.704;23.304;2022-07-29T11:24:37;95194.00;;;47.82;12.66
42007;BME280;27696;42.704;23.304;2022-07-29T11:27:16;95198.59;;;49.13;11.67
42007;BME280;27696;42.704;23.304;2022-07-29T11:29:51;95214.25;;;45.64;14.51
42007;BME280;27696;42.704;23.304;2022-07-29T11:32:18;95205.91;;;48.59;12.08
42007;BME280;27696;42.704;23.304;2022-07-29T11:34:47;95200.31;;;48.04;13.06
42007;BME280;27696;42.704;23.304;2022-07-29T11:37:18;95197.13;;;47.92;13.23
42007;BME280;27696;42.704;23.304;2022-07-29T11:45:14;95199.34;;;49.50;11.49
42007;BME280;27696;42.704;23.304;2022-07-29T11:47:47;95181.59;;;48.87;12.46
42007;BME280;27696;42.704;23.304;2022-07-29T11:50:17;95185.41;;;46.78;13.57
42007;BME280;27696;42.704;23.304;2022-07-29T11:52:45;95186.53;;;45.82;14.29
42007;BME280;27696;42.704;23.304;2022-07-29T11:57:50;95191.50;;;45.62;13.92
42007;BME280;27696;42.704;23.304;2022-07-29T12:00:36;95178.41;;;46.59;14.24
42007;BME280;27696;42.704;23.304;2022-07-29T12:03:05;95180.16;;;48.25;12.83
42007;BME280;27696;42.704;23.304;2022-07-29T12:08:20;95181.31;;;48.42;12.44
42007;BME280;27696;42.704;23.304;2022-07-29T12:10:51;95172.03;;;46.61;13.49
42007;BME280;27696;42.704;23.304;2022-07-29T12:13:18;95178.97;;;48.06;12.73
42007;BME280;27696;42.704;23.304;2022-07-29T12:15:55;95168.97;;;48.63;12.39
42007;BME280;27696;42.704;23.304;2022-07-29T12:18:21;95177.84;;;49.45;11.84
42007;BME280;27696;42.704;23.304;2022-07-29T12:20:48;95175.31;;;47.74;12.83
42007;BME280;27696;42.704;23.304;2022-07-29T12:23:14;95170.22;;;48.87;12.48
42007;BME280;27696;42.704;23.304;2022-07-29T12:25:42;95173.84;;;48.00;12.88
42007;BME280;27696;42.704;23.304;2022-07-29T12:28:13;95171.94;;;47.54;12.99
42007;BME280;27696;42.704;23.304;2022-07-29T12:30:45;95175.63;;;46.17;13.29
42007;BME280;27696;42.704;23.304;2022-07-29T12:33:25;95170.28;;;46.96;13.38
42007;BME280;27696;42.704;23.304;2022-07-29T12:35:57;95164.22;;;47.32;12.91
42007;BME280;27696;42.704;23.304;2022-07-29T12:38:23;95147.22;;;47.61;12.86
42007;BME280;27696;42.704;23.304;2022-07-29T12:40:49;95163.72;;;48.23;11.90
42007;BME280;27696;42.704;23.304;2022-07-29T12:43:19;95153.41;;;50.13;10.85
42007;BME280;27696;42.704;23.304;2022-07-29T12:45:47;95159.09;;;49.36;11.28
42007;BME280;27696;42.704;23.304;2022-07-29T12:48:14;95154.94;;;50.21;11.09
42007;BME280;27696;42.704;23.304;2022-07-29T12:50:59;95154.38;;;50.79;11.09
42007;BME280;27696;42.704;23.304;2022-07-29T12:53:25;95150.88;;;47.92;12.17
42007;BME280;27696;42.704;23.304;2022-07-29T12:55:52;95154.03;;;49.69;11.39
42007;BME280;27696;42.704;23.304;2022-07-29T12:58:37;95142.25;;;49.48;11.50
42007;BME280;27696;42.704;23.304;2022-07-29T13:01:12;95119.28;;;48.71;12.22
42007;BME280;27696;42.704;23.304;2022-07-29T13:06:38;95123.75;;;51.48;10.06
42007;BME280;27696;42.704;23.304;2022-07-29T13:11:46;95131.63;;;50.86;10.40
42007;BME280;27696;42.704;23.304;2022-07-29T13:14:16;95130.28;;;49.19;11.45
42007;BME280;27696;42.704;23.304;2022-07-29T13:19:52;95132.59;;;51.70;9.91
42007;BME280;27696;42.704;23.304;2022-07-29T13:22:20;95122.69;;;51.84;9.39
42007;BME280;27696;42.704;23.304;2022-07-29T13:27:33;95124.00;;;48.92;11.18
42007;BME280;27696;42.704;23.304;2022-07-29T13:30:00;95120.56;;;50.14;10.46
42007;BME280;27696;42.704;23.304;2022-07-29T13:32:27;95113.53;;;49.03;11.64
42007;BME280;27696;42.704;23.304;2022-07-29T13:34:57;95109.91;;;49.35;11.15
42007;BME280;27696;42.704;23.304;2022-07-29T13:37:24;95099.09;;;48.60;11.95
42007;BME280;27696;42.704;23.304;2022-07-29T13:39:51;95113.53;;;49.38;11.43
42007;BME280;27696;42.704;23.304;2022-07-29T13:42:17;95101.25;;;48.94;11.65
42007;BME280;27696;42.704;23.304;2022-07-29T13:44:43;95099.00;;;49.25;11.51